Time;durP1;ratioP1;P1;durP2;ratioP2;P2;SDS_P1;SDS_P2;PMS_P1;PMS_P2;Temp;Humidity;BMP_temperature;BMP_pressure;BME280_temperature;BME280_humidity;BME280_pressure;Samples;Min_cycle;Max_cycle;Signal;HPM_P1;HPM_P2
2021/07/28 00:00:33;;;;;;;12.48;10.65;;;18.10;83.60;;;;;;5057933;28;20182;-83
2021/07/28 00:02:59;;;;;;;11.35;10.15;;;18.10;83.60;;;;;;5057629;28;20207;-83
2021/07/28 00:05:24;;;;;;;12.40;10.35;;;18.10;83.50;;;;;;5057646;28;20639;-83
2021/07/28 00:07:50;;;;;;;11.10;9.95;;;18.10;83.40;;;;;;5075679;28;20171;-83
2021/07/28 00:10:16;;;;;;;13.63;9.93;;;18.00;83.50;;;;;;5075655;28;20229;-83
2021/07/28 00:12:41;;;;;;;12.80;10.52;;;17.80;84.00;;;;;;5057534;28;20587;-83
2021/07/28 00:15:08;;;;;;;14.85;10.18;;;17.80;84.30;;;;;;5075571;28;20207;-83
2021/07/28 00:17:51;;;;;;;12.18;10.48;;;17.70;84.80;;;;;;5057507;28;20182;-83
2021/07/28 00:20:30;;;;;;;11.00;9.57;;;17.60;84.90;;;;;;5057589;28;20162;-83
2021/07/28 00:23:14;;;;;;;11.35;10.20;;;17.60;85.10;;;;;;5075627;28;20183;-83
2021/07/28 00:25:41;;;;;;;13.82;10.27;;;17.60;85.00;;;;;;5057477;28;20152;-83
2021/07/28 00:28:07;;;;;;;11.43;9.57;;;17.60;85.10;;;;;;5075550;28;20177;-83
2021/07/28 00:30:33;;;;;;;17.42;10.65;;;17.60;85.20;;;;;;5075511;28;20167;-83
2021/07/28 00:32:59;;;;;;;11.35;10.15;;;17.50;85.30;;;;;;5075222;28;20533;-83
2021/07/28 00:35:25;;;;;;;11.20;10.07;;;17.60;85.40;;;;;;5075239;28;20221;-83
2021/07/28 00:37:51;;;;;;;11.52;10.27;;;17.60;85.30;;;;;;5075138;28;20286;-83
2021/07/28 00:40:17;;;;;;;11.25;9.98;;;17.60;85.10;;;;;;5075064;28;20166;-83
2021/07/28 00:42:43;;;;;;;13.07;11.02;;;17.70;85.10;;;;;;5056998;28;20664;-83
2021/07/28 00:45:09;;;;;;;11.48;10.27;;;17.60;85.40;;;;;;5057040;28;20261;-83
2021/07/28 00:47:35;;;;;;;16.35;10.68;;;17.60;85.60;;;;;;5056917;28;20191;-83
2021/07/28 00:50:05;;;;;;;11.40;10.20;;;17.60;85.50;;;;;;5074886;28;20207;-83
2021/07/28 00:52:36;;;;;;;12.70;9.55;;;17.70;85.40;;;;;;5056810;28;20167;-83
2021/07/28 00:55:06;;;;;;;14.48;11.40;;;17.70;85.20;;;;;;5056835;28;20159;-83
2021/07/28 00:57:31;;;;;;;13.30;11.30;;;17.70;85.50;;;;;;5074684;28;20636;-83
2021/07/28 00:59:58;;;;;;;12.15;10.95;;;17.70;85.60;;;;;;5074535;28;20175;-83
2021/07/28 01:02:23;;;;;;;13.02;11.68;;;17.70;85.80;;;;;;5055959;28;20346;-84
2021/07/28 01:04:49;;;;;;;13.65;11.68;;;17.70;85.80;;;;;;5056737;28;20194;-83
2021/07/28 01:07:15;;;;;;;16.52;12.73;;;17.70;85.90;;;;;;5056566;28;20221;-83
2021/07/28 01:09:40;;;;;;;13.98;11.20;;;17.70;85.90;;;;;;5056485;28;20666;-83
2021/07/28 01:12:07;;;;;;;18.88;12.07;;;17.80;85.80;;;;;;5056533;28;20229;-83
2021/07/28 01:14:33;;;;;;;20.35;13.45;;;17.80;85.60;;;;;;5056380;28;20222;-83
2021/07/28 01:16:58;;;;;;;15.18;13.55;;;17.80;85.80;;;;;;5074445;28;20662;-83
2021/07/28 01:19:29;;;;;;;15.88;13.00;;;17.80;86.30;;;;;;5056348;28;20209;-83
2021/07/28 01:21:58;;;;;;;15.40;13.18;;;17.70;86.50;;;;;;5074254;28;20152;-83
2021/07/28 01:24:24;;;;;;;20.52;13.82;;;17.70;86.50;;;;;;5074253;28;20791;-84
2021/07/28 01:26:51;;;;;;;15.82;13.82;;;17.70;86.50;;;;;;5056155;28;20171;-83
2021/07/28 01:29:17;;;;;;;15.77;13.95;;;17.70;86.80;;;;;;5056162;28;20267;-83
2021/07/28 01:31:47;;;;;;;18.00;16.05;;;17.70;87.30;;;;;;5074153;28;20174;-83
2021/07/28 01:34:13;;;;;;;20.65;14.38;;;17.70;87.20;;;;;;5055913;28;20201;-84
2021/07/28 01:36:40;;;;;;;20.45;15.57;;;17.70;87.20;;;;;;5056041;28;20176;-83
2021/07/28 01:39:05;;;;;;;17.38;14.68;;;17.60;87.30;;;;;;5055889;28;20199;-84
2021/07/28 01:41:34;;;;;;;16.25;14.65;;;17.60;87.20;;;;;;5055849;28;20203;-83
2021/07/28 01:44:00;;;;;;;18.23;14.32;;;17.70;87.10;;;;;;5056182;28;20241;-83
2021/07/28 01:46:26;;;;;;;18.08;13.82;;;17.70;86.90;;;;;;5073621;28;20174;-83
2021/07/28 01:48:51;;;;;;;15.35;13.35;;;17.70;86.80;;;;;;5055806;28;20206;-83
2021/07/28 01:51:17;;;;;;;14.57;12.70;;;17.70;86.60;;;;;;5055999;28;20217;-83
2021/07/28 01:53:43;;;;;;;19.60;13.68;;;17.80;86.40;;;;;;5055566;28;20282;-83
2021/07/28 01:56:10;;;;;;;15.45;13.85;;;17.70;86.60;;;;;;5073542;28;20567;-84
2021/07/28 01:58:39;;;;;;;18.15;15.05;;;17.70;86.70;;;;;;5055680;28;20736;-84
2021/07/28 02:01:05;;;;;;;16.83;13.13;;;17.60;86.80;;;;;;5055765;28;20198;-83
2021/07/28 02:03:30;;;;;;;14.43;13.05;;;17.60;86.70;;;;;;5055556;28;20215;-83
2021/07/28 02:05:56;;;;;;;15.13;12.30;;;17.60;86.40;;;;;;5055671;28;20176;-83
2021/07/28 02:08:22;;;;;;;14.52;12.90;;;17.70;86.30;;;;;;5055851;28;20204;-84
2021/07/28 02:10:49;;;;;;;20.25;12.90;;;17.60;86.20;;;;;;5055544;28;20194;-83
2021/07/28 02:13:17;;;;;;;17.95;12.73;;;17.60;86.00;;;;;;5073408;28;20191;-83
2021/07/28 02:15:43;;;;;;;15.00;12.77;;;17.60;85.90;;;;;;5055545;28;20182;-83
2021/07/28 02:18:09;;;;;;;13.15;11.77;;;17.60;85.80;;;;;;5073563;28;20253;-83
2021/07/28 02:20:35;;;;;;;16.55;12.90;;;17.70;85.60;;;;;;5055438;28;20210;-84
2021/07/28 02:23:01;;;;;;;18.17;13.35;;;17.50;85.80;;;;;;5073683;28;20229;-84
2021/07/28 02:25:27;;;;;;;14.88;12.00;;;17.50;85.90;;;;;;5055201;28;20172;-83
2021/07/28 02:27:53;;;;;;;14.23;12.63;;;17.50;85.70;;;;;;5073295;28;20580;-83
2021/07/28 02:30:19;;;;;;;14.52;11.95;;;17.50;85.70;;;;;;5073312;28;20172;-83
2021/07/28 02:32:46;;;;;;;14.10;12.02;;;17.50;85.60;;;;;;5055255;28;20542;-83
2021/07/28 02:35:12;;;;;;;19.33;13.52;;;17.50;85.70;;;;;;5073201;28;20228;-83
2021/07/28 02:37:42;;;;;;;13.95;12.35;;;17.40;85.60;;;;;;5055054;28;20207;-84
2021/07/28 02:40:16;;;;;;;13.57;12.18;;;17.40;85.60;;;;;;5073015;28;20163;-83
2021/07/28 02:42:42;;;;;;;15.75;11.52;;;17.50;85.40;;;;;;5073133;28;20191;-83
2021/07/28 02:45:08;;;;;;;20.98;11.85;;;17.50;85.10;;;;;;5055144;28;20179;-83
2021/07/28 02:47:34;;;;;;;16.35;11.18;;;17.50;85.10;;;;;;5055384;28;20168;-84
2021/07/28 02:49:59;;;;;;;15.05;12.95;;;17.50;84.90;;;;;;5073111;28;20168;-83
2021/07/28 02:52:25;;;;;;;15.60;13.10;;;17.40;85.10;;;;;;5054928;28;20167;-83
2021/07/28 02:54:51;;;;;;;18.00;12.77;;;17.40;85.20;;;;;;5054952;28;20171;-83
2021/07/28 02:57:16;;;;;;;17.38;13.57;;;17.40;85.20;;;;;;5055058;28;20171;-83
2021/07/28 02:59:42;;;;;;;14.70;12.68;;;17.30;85.40;;;;;;5054917;28;20206;-83
2021/07/28 03:02:07;;;;;;;15.23;12.70;;;17.20;85.70;;;;;;5073006;28;20246;-83
2021/07/28 03:04:33;;;;;;;16.02;13.27;;;17.20;85.90;;;;;;5072788;28;20222;-83
2021/07/28 03:06:59;;;;;;;15.27;12.80;;;17.20;86.10;;;;;;5072874;28;20175;-83
2021/07/28 03:09:24;;;;;;;16.23;14.13;;;17.20;86.30;;;;;;5072785;28;20182;-83
2021/07/28 03:11:50;;;;;;;21.88;14.00;;;17.20;86.30;;;;;;5054915;28;20262;-83
2021/07/28 03:14:16;;;;;;;17.35;12.90;;;17.20;86.30;;;;;;5072705;28;20229;-83
2021/07/28 03:16:41;;;;;;;14.95;13.05;;;17.20;86.20;;;;;;5054853;28;20179;-83
2021/07/28 03:19:07;;;;;;;24.13;14.35;;;17.20;86.60;;;;;;5055872;28;20195;-84
2021/07/28 03:21:33;;;;;;;18.50;14.77;;;17.10;86.80;;;;;;5074024;28;20536;-84
2021/07/28 03:23:59;;;;;;;15.43;13.82;;;17.10;86.70;;;;;;5072825;28;20226;-83
2021/07/28 03:26:24;;;;;;;17.75;14.18;;;17.10;86.90;;;;;;5074366;28;20210;-83
2021/07/28 03:28:50;;;;;;;15.95;14.30;;;17.00;87.30;;;;;;5058478;28;20175;-83
2021/07/28 03:31:16;;;;;;;19.27;14.63;;;17.00;87.40;;;;;;5058320;28;20175;-83
2021/07/28 03:33:41;;;;;;;18.63;14.88;;;16.90;87.70;;;;;;5058441;28;20199;-83
2021/07/28 03:36:07;;;;;;;17.23;15.32;;;16.90;87.80;;;;;;5058341;28;20262;-83
2021/07/28 03:38:33;;;;;;;16.33;14.63;;;16.80;88.00;;;;;;5058243;28;20356;-84
2021/07/28 03:40:58;;;;;;;21.75;15.82;;;16.90;87.80;;;;;;5058342;28;20172;-83
2021/07/28 03:43:24;;;;;;;18.88;15.70;;;16.90;87.60;;;;;;5076298;28;20191;-83
2021/07/28 03:45:50;;;;;;;21.05;16.67;;;16.90;87.90;;;;;;5076024;28;20251;-83
2021/07/28 03:48:15;;;;;;;18.17;15.77;;;16.90;88.00;;;;;;5058021;28;20699;-84
2021/07/28 03:50:41;;;;;;;22.38;16.02;;;16.80;88.20;;;;;;5075931;28;20175;-83
2021/07/28 03:53:06;;;;;;;18.67;16.63;;;16.80;88.30;;;;;;5075846;28;20222;-83
2021/07/28 03:55:32;;;;;;;19.80;15.55;;;16.80;88.40;;;;;;5057952;28;20652;-83
2021/07/28 03:57:58;;;;;;;20.27;15.52;;;16.70;88.60;;;;;;5075978;28;20203;-83
2021/07/28 04:00:23;;;;;;;20.95;16.83;;;16.70;88.80;;;;;;5057915;28;20174;-83
2021/07/28 04:02:49;;;;;;;26.67;15.95;;;16.60;88.90;;;;;;5057623;28;20682;-83
2021/07/28 04:05:16;;;;;;;20.63;15.88;;;16.70;88.90;;;;;;5075764;28;20205;-83
2021/07/28 04:07:42;;;;;;;20.75;17.20;;;16.70;88.60;;;;;;5057812;28;20167;-83
2021/07/28 04:10:09;;;;;;;21.65;15.82;;;16.70;88.60;;;;;;5058066;28;20175;-83
2021/07/28 04:12:35;;;;;;;16.98;15.23;;;16.70;88.60;;;;;;5057626;28;20175;-83
2021/07/28 04:15:01;;;;;;;20.48;14.88;;;16.80;88.40;;;;;;5057559;28;20538;-83
2021/07/28 04:17:26;;;;;;;16.60;13.98;;;16.90;88.10;;;;;;5075503;28;20167;-83
2021/07/28 04:19:52;;;;;;;24.17;15.50;;;16.90;87.80;;;;;;5057557;28;20270;-84
2021/07/28 04:22:19;;;;;;;16.80;15.05;;;16.90;87.90;;;;;;5057376;28;20178;-84
2021/07/28 04:24:46;;;;;;;17.02;15.23;;;16.80;88.10;;;;;;5057187;28;20199;-84
2021/07/28 04:27:11;;;;;;;19.25;15.07;;;16.80;88.30;;;;;;5075313;28;20171;-84
2021/07/28 04:29:37;;;;;;;21.20;16.52;;;16.70;88.30;;;;;;5057270;28;20182;-84
2021/07/28 04:32:03;;;;;;;19.83;15.88;;;16.70;88.60;;;;;;5057357;28;20179;-83
2021/07/28 04:34:29;;;;;;;21.23;16.75;;;16.60;88.90;;;;;;5057187;28;20332;-84
2021/07/28 04:36:54;;;;;;;20.77;16.40;;;16.70;88.80;;;;;;5056598;28;20207;-83
2021/07/28 04:39:20;;;;;;;17.30;15.50;;;16.70;89.10;;;;;;5056597;28;20685;-83
2021/07/28 04:41:46;;;;;;;20.52;15.85;;;16.70;89.30;;;;;;5057175;28;20171;-83
2021/07/28 04:44:11;;;;;;;20.67;15.98;;;16.80;89.20;;;;;;5056937;28;20724;-83
2021/07/28 04:46:37;;;;;;;21.08;16.15;;;16.90;89.10;;;;;;5075566;28;20581;-83
2021/07/28 04:49:03;;;;;;;19.10;16.52;;;17.00;88.70;;;;;;5074849;28;20598;-83
2021/07/28 04:51:28;;;;;;;19.55;15.50;;;17.10;88.60;;;;;;5056885;28;20182;-83
2021/07/28 04:53:54;;;;;;;21.00;16.52;;;17.20;88.40;;;;;;5074659;28;20558;-83
2021/07/28 04:56:19;;;;;;;21.27;15.00;;;17.30;87.80;;;;;;5074700;28;20171;-83
2021/07/28 04:58:45;;;;;;;19.08;15.75;;;17.40;87.70;;;;;;5074545;28;20677;-83
2021/07/28 05:01:11;;;;;;;17.35;14.48;;;17.50;87.70;;;;;;5056766;28;20592;-84
2021/07/28 05:03:38;;;;;;;18.55;14.93;;;17.40;87.10;;;;;;5056267;28;20231;-84
2021/07/28 05:06:04;;;;;;;26.35;17.38;;;17.40;87.40;;;;;;5073669;28;20636;-84
2021/07/28 05:08:30;;;;;;;20.85;15.02;;;17.40;87.50;;;;;;5055965;28;20269;-83
2021/07/28 05:10:56;;;;;;;18.73;14.52;;;17.40;87.70;;;;;;5074234;28;20297;-83
2021/07/28 05:13:21;;;;;;;19.10;14.90;;;17.50;87.10;;;;;;5055608;28;20707;-83
2021/07/28 05:15:52;;;;;;;20.83;15.05;;;17.50;87.50;;;;;;5055694;28;20643;-83
2021/07/28 05:18:18;;;;;;;23.75;16.20;;;17.50;87.20;;;;;;5055561;28;20199;-83
2021/07/28 05:20:45;;;;;;;19.08;15.75;;;17.60;87.40;;;;;;5055987;28;20247;-83
2021/07/28 05:23:11;;;;;;;21.25;15.25;;;17.70;86.50;;;;;;5055521;28;20195;-83
2021/07/28 05:25:36;;;;;;;20.63;15.10;;;17.70;86.70;;;;;;5073354;28;20250;-83
2021/07/28 05:28:02;;;;;;;22.08;16.67;;;17.70;86.80;;;;;;5073228;28;20168;-83
2021/07/28 05:30:28;;;;;;;21.25;16.08;;;17.70;86.70;;;;;;5055236;28;20182;-83
2021/07/28 05:32:54;;;;;;;23.17;17.20;;;17.60;86.70;;;;;;5055146;28;20222;-86
2021/07/28 05:35:20;;;;;;;25.02;17.33;;;17.60;86.50;;;;;;5073120;28;20168;-86
2021/07/28 05:37:46;;;;;;;24.80;18.55;;;17.60;86.90;;;;;;5073302;28;20180;-87
2021/07/28 05:40:12;;;;;;;26.33;18.73;;;17.70;86.90;;;;;;5073056;28;20655;-86
2021/07/28 05:42:38;;;;;;;26.98;18.65;;;17.80;86.70;;;;;;5054934;28;20193;-86
2021/07/28 05:45:05;;;;;;;25.80;17.92;;;17.80;86.10;;;;;;5055062;28;20644;-86
2021/07/28 05:47:30;;;;;;;27.08;19.52;;;17.90;86.10;;;;;;5072843;28;20175;-86
2021/07/28 05:49:58;;;;;;;24.80;18.80;;;18.00;85.20;;;;;;5054642;28;20182;-86
2021/07/28 05:52:24;;;;;;;26.25;17.67;;;18.00;85.20;;;;;;5054844;28;20175;-86
2021/07/28 05:54:49;;;;;;;20.67;15.65;;;18.20;85.50;;;;;;5072804;28;20244;-86
2021/07/28 05:57:15;;;;;;;21.67;15.98;;;18.20;84.90;;;;;;5072823;28;20631;-86
2021/07/28 05:59:41;;;;;;;17.92;14.40;;;18.30;85.00;;;;;;5054716;28;20230;-86
2021/07/28 06:02:06;;;;;;;22.67;15.23;;;18.30;84.00;;;;;;5072774;28;20258;-86
2021/07/28 06:04:32;;;;;;;24.13;15.90;;;18.20;83.40;;;;;;5017701;28;1085103;-86
2021/07/28 06:06:58;;;;;;;19.58;14.65;;;18.20;83.80;;;;;;5073655;28;20258;-86
2021/07/28 06:09:23;;;;;;;18.70;14.50;;;18.30;83.70;;;;;;5055546;28;20191;-87
2021/07/28 06:11:49;;;;;;;21.60;13.50;;;18.50;83.50;;;;;;5073371;28;20175;-86
2021/07/28 06:14:14;;;;;;;14.55;12.38;;;18.50;82.70;;;;;;5055456;28;20293;-86
2021/07/28 06:16:40;;;;;;;15.25;11.30;;;18.50;82.40;;;;;;5055369;28;20225;-87
2021/07/28 06:19:05;;;;;;;16.02;12.23;;;18.70;82.20;;;;;;5073217;28;20221;-87
2021/07/28 06:21:31;;;;;;;16.23;12.27;;;18.60;81.60;;;;;;5073367;28;20212;-87
2021/07/28 06:23:59;;;;;;;18.70;12.90;;;18.70;81.40;;;;;;5055354;28;20669;-87
2021/07/28 06:26:25;;;;;;;15.20;12.40;;;18.70;81.90;;;;;;5073210;28;20167;-86
2021/07/28 06:28:51;;;;;;;15.13;12.55;;;18.70;82.30;;;;;;5073187;28;20167;-87
2021/07/28 06:31:17;;;;;;;18.58;12.80;;;18.80;82.40;;;;;;5055243;28;20183;-86
2021/07/28 06:33:42;;;;;;;17.05;12.05;;;18.80;81.00;;;;;;5055267;28;20198;-86
2021/07/28 06:36:08;;;;;;;17.75;12.35;;;18.60;81.20;;;;;;5073138;28;20171;-86
2021/07/28 06:38:34;;;;;;;19.13;14.20;;;18.60;81.80;;;;;;5073088;28;20202;-86
2021/07/28 06:40:59;;;;;;;16.35;13.10;;;18.40;81.70;;;;;;5073025;28;20245;-86
2021/07/28 06:43:25;;;;;;;16.90;12.35;;;18.40;82.20;;;;;;5055061;28;20541;-86
2021/07/28 06:46:00;;;;;;;15.20;13.07;;;18.40;82.30;;;;;;5055163;28;20179;-87
2021/07/28 06:48:25;;;;;;;18.92;13.30;;;18.50;82.30;;;;;;5055162;28;20177;-87
2021/07/28 06:50:54;;;;;;;20.40;14.05;;;18.70;81.80;;;;;;5055021;28;20179;-87
2021/07/28 06:53:20;;;;;;;13.40;11.50;;;18.80;81.30;;;;;;5055187;28;20223;-87
2021/07/28 06:55:46;;;;;;;14.30;11.82;;;19.00;81.50;;;;;;5073036;28;20210;-87
2021/07/28 06:58:11;;;;;;;20.05;11.88;;;19.00;80.40;;;;;;5054900;28;20293;-87
2021/07/28 07:00:37;;;;;;;19.02;13.68;;;19.00;80.70;;;;;;5055530;28;20167;-87
2021/07/28 07:03:03;;;;;;;17.42;12.63;;;19.00;80.70;;;;;;5058719;28;20289;-86
2021/07/28 07:05:28;;;;;;;19.55;13.60;;;18.90;80.60;;;;;;5058987;28;20182;-87
2021/07/28 07:07:54;;;;;;;17.42;12.85;;;18.80;80.70;;;;;;5058860;28;20656;-86
2021/07/28 07:10:21;;;;;;;14.35;12.52;;;18.90;81.00;;;;;;5058838;28;20178;-87
2021/07/28 07:12:47;;;;;;;18.85;12.75;;;18.90;80.40;;;;;;5058755;28;20195;-87
2021/07/28 07:15:13;;;;;;;17.00;12.10;;;19.00;80.30;;;;;;5058715;28;20631;-86
2021/07/28 07:17:38;;;;;;;16.88;12.52;;;19.00;80.00;;;;;;5058645;28;20179;-86
2021/07/28 07:20:05;;;;;;;15.40;12.38;;;19.10;80.40;;;;;;5058683;28;20279;-86
2021/07/28 07:22:30;;;;;;;17.73;12.63;;;19.10;80.00;;;;;;5076673;28;20168;-86
2021/07/28 07:24:56;;;;;;;17.00;12.57;;;19.00;79.90;;;;;;5076408;28;20170;-86
2021/07/28 07:27:22;;;;;;;13.55;11.82;;;19.10;80.00;;;;;;5076373;28;20174;-86
2021/07/28 07:29:48;;;;;;;21.50;12.98;;;19.10;79.10;;;;;;5076332;28;20607;-86
2021/07/28 07:32:20;;;;;;;16.48;12.10;;;19.10;80.00;;;;;;5076263;28;20171;-86
2021/07/28 07:34:45;;;;;;;13.25;11.07;;;19.20;80.50;;;;;;5076279;28;20245;-87
2021/07/28 07:37:11;;;;;;;14.85;11.90;;;19.20;80.30;;;;;;5076276;28;20175;-88
2021/07/28 07:39:37;;;;;;;13.73;11.50;;;19.20;80.10;;;;;;5058672;28;20214;-88
2021/07/28 07:42:03;;;;;;;15.55;11.20;;;19.10;79.30;;;;;;5058259;28;20179;-88
2021/07/28 07:44:28;;;;;;;13.07;11.75;;;19.10;79.10;;;;;;5076113;28;20191;-88
2021/07/28 07:46:54;;;;;;;14.77;10.82;;;19.30;80.30;;;;;;5076438;28;20225;-87
2021/07/28 07:49:19;;;;;;;14.40;11.73;;;19.70;78.70;;;;;;5058179;28;20629;-87
2021/07/28 07:51:45;;;;;;;15.80;10.52;;;19.50;77.90;;;;;;5077131;28;20199;-88
2021/07/28 07:54:10;;;;;;;12.95;9.85;;;19.60;78.00;;;;;;5076375;28;20191;-88
2021/07/28 07:56:36;;;;;;;17.20;10.80;;;19.40;78.20;;;;;;5058251;28;20175;-88
2021/07/28 07:59:02;;;;;;;10.73;9.55;;;19.40;78.90;;;;;;5058025;28;20651;-88
2021/07/28 08:01:27;;;;;;;14.98;10.98;;;19.30;78.50;;;;;;5058140;28;20171;-88
2021/07/28 08:03:53;;;;;;;15.63;10.48;;;19.30;77.40;;;;;;5057834;28;20214;-88
2021/07/28 08:06:19;;;;;;;18.23;11.05;;;19.40;77.20;;;;;;5057958;28;20171;-88
2021/07/28 08:08:44;;;;;;;12.38;10.40;;;19.40;77.90;;;;;;5076111;28;20179;-88
2021/07/28 08:11:11;;;;;;;13.45;11.07;;;19.30;77.90;;;;;;5058530;28;20178;-88
2021/07/28 08:13:37;;;;;;;12.25;9.95;;;19.30;78.30;;;;;;5077303;28;20288;-88
2021/07/28 08:16:29;;;;;;;18.80;11.30;;;19.70;76.80;;;;;;5076424;28;20166;-88
2021/07/28 08:18:55;;;;;;;13.65;10.13;;;19.90;75.90;;;;;;5055060;28;20221;-87
2021/07/28 08:21:20;;;;;;;11.45;8.77;;;20.10;76.00;;;;;;5057647;28;20171;-87
2021/07/28 08:23:47;;;;;;;11.63;8.93;;;20.30;74.70;;;;;;5075428;28;20260;-88
2021/07/28 08:26:14;;;;;;;10.95;8.20;;;20.30;73.50;;;;;;5057565;28;20206;-88
2021/07/28 08:28:41;;;;;;;13.07;8.52;;;20.40;73.90;;;;;;5075725;28;20609;-88
2021/07/28 08:31:07;;;;;;;13.48;8.52;;;20.70;73.50;;;;;;5075727;28;20183;-88
2021/07/28 08:33:32;;;;;;;10.05;8.52;;;20.70;73.60;;;;;;5057513;28;20549;-88
2021/07/28 08:36:01;;;;;;;9.68;7.78;;;20.60;73.90;;;;;;5057562;28;20171;-88
2021/07/28 08:38:27;;;;;;;9.65;7.28;;;20.80;72.90;;;;;;5057401;28;20195;-88
2021/07/28 08:41:01;;;;;;;13.00;8.25;;;20.60;71.90;;;;;;5057233;28;20525;-88
2021/07/28 08:43:29;;;;;;;10.05;8.57;;;20.60;74.20;;;;;;5075423;28;20191;-88
2021/07/28 08:45:59;;;;;;;12.13;7.85;;;20.70;73.90;;;;;;5057152;28;20577;-88
2021/07/28 08:48:29;;;;;;;10.43;7.82;;;20.60;72.50;;;;;;5057163;28;20181;-88
2021/07/28 08:50:56;;;;;;;10.20;6.85;;;20.40;74.30;;;;;;5057182;28;20179;-88
2021/07/28 08:53:23;;;;;;;10.45;6.82;;;20.50;73.20;;;;;;5057054;28;20261;-88
2021/07/28 08:55:51;;;;;;;8.40;6.55;;;20.50;72.90;;;;;;5056987;28;20175;-88
2021/07/28 08:58:20;;;;;;;9.30;6.82;;;20.80;72.90;;;;;;5057483;28;20209;-86
2021/07/28 09:00:46;;;;;;;9.23;7.35;;;21.00;74.10;;;;;;5074733;28;20172;-85
2021/07/28 09:03:12;;;;;;;10.00;7.75;;;21.00;72.50;;;;;;5112726;22;20685;-80
2021/07/28 09:05:39;;;;;;;10.73;7.15;;;21.20;73.00;;;;;;5075017;28;20176;-81
2021/07/28 09:08:06;;;;;;;10.05;7.30;;;21.10;71.80;;;;;;5074983;28;20254;-82
2021/07/28 09:10:31;;;;;;;7.50;6.68;;;21.10;72.10;;;;;;5075058;28;20172;-82
2021/07/28 09:12:57;;;;;;;7.25;6.35;;;21.20;71.90;;;;;;5074694;28;20179;-82
2021/07/28 09:15:23;;;;;;;8.18;6.40;;;21.20;71.20;;;;;;5056932;28;20218;-83
2021/07/28 09:17:49;;;;;;;7.97;6.10;;;21.30;72.00;;;;;;5056969;28;20662;-81
2021/07/28 09:20:25;;;;;;;7.95;6.28;;;21.40;69.70;;;;;;5075313;28;20190;-83
2021/07/28 09:22:51;;;;;;;9.65;7.07;;;21.20;69.60;;;;;;5074782;28;20176;-82
2021/07/28 09:25:21;;;;;;;8.07;7.10;;;20.90;71.50;;;;;;5074234;28;20183;-81
2021/07/28 09:27:52;;;;;;;10.27;6.30;;;20.80;71.80;;;;;;5075042;28;20156;-82
2021/07/28 09:30:23;;;;;;;9.65;5.45;;;20.80;71.60;;;;;;5074547;28;20161;-81
2021/07/28 09:33:12;;;;;;;11.10;5.82;;;20.90;72.00;;;;;;5074310;28;20641;-81
2021/07/28 09:35:47;;;;;;;7.38;4.95;;;21.40;71.80;;;;;;5056798;28;20549;-81
2021/07/28 09:38:35;;;;;;;6.20;5.38;;;21.30;68.50;;;;;;5056486;28;20232;-81
2021/07/28 09:41:26;;;;;;;7.82;4.88;;;21.60;70.80;;;;;;5061418;28;20179;-81
2021/07/28 09:43:59;;;;;;;7.80;4.70;;;21.20;68.40;;;;;;5056172;28;20206;-81
2021/07/28 09:46:34;;;;;;;10.32;4.82;;;21.20;70.40;;;;;;5056338;28;20254;-81
2021/07/28 09:49:05;;;;;;;5.78;4.45;;;21.60;70.20;;;;;;5074728;28;20155;-81
2021/07/28 09:51:34;;;;;;;6.85;4.90;;;21.70;70.20;;;;;;5074937;28;20688;-83
2021/07/28 09:54:08;;;;;;;4.78;4.30;;;21.90;67.70;;;;;;5074312;28;20191;-81
2021/07/28 09:56:58;;;;;;;7.05;4.40;;;22.10;66.30;;;;;;5074224;28;20175;-81
2021/07/28 09:59:24;;;;;;;9.57;4.45;;;22.10;67.60;;;;;;5074187;28;20291;-81
2021/07/28 10:01:55;;;;;;;5.53;4.63;;;21.70;65.30;;;;;;5074346;28;20171;-81
2021/07/28 10:04:21;;;;;;;6.70;4.53;;;21.80;65.60;;;;;;5073797;28;20605;-81
2021/07/28 10:06:52;;;;;;;9.43;4.32;;;22.20;66.10;;;;;;5074503;28;20167;-81
2021/07/28 10:09:20;;;;;;;6.00;4.40;;;22.30;65.80;;;;;;5055992;28;20166;-81
2021/07/28 10:11:52;;;;;;;6.43;4.68;;;22.50;65.00;;;;;;5056182;28;20213;-81
2021/07/28 10:14:19;;;;;;;7.07;4.32;;;22.50;65.10;;;;;;5073930;28;20187;-81
2021/07/28 10:16:46;;;;;;;6.88;5.22;;;22.40;62.60;;;;;;5055852;28;20179;-81
2021/07/28 10:19:12;;;;;;;9.07;4.40;;;22.40;65.20;;;;;;5073703;28;20199;-81
2021/07/28 10:21:38;;;;;;;6.07;4.93;;;22.70;63.60;;;;;;5073726;28;20290;-81
2021/07/28 10:24:05;;;;;;;7.32;5.32;;;22.50;62.80;;;;;;5073666;28;20183;-80
2021/07/28 10:26:37;;;;;;;7.05;5.20;;;21.90;63.90;;;;;;5073874;28;20187;-82
2021/07/28 10:29:03;;;;;;;5.90;4.25;;;22.20;66.30;;;;;;5073598;28;20182;-81
2021/07/28 10:31:49;;;;;;;6.00;5.25;;;22.30;66.50;;;;;;5073530;28;20175;-81
2021/07/28 10:34:32;;;;;;;6.45;4.57;;;22.00;66.10;;;;;;5073640;28;20252;-82
2021/07/28 10:37:05;;;;;;;8.85;5.15;;;22.10;65.10;;;;;;5054753;28;20171;-81
2021/07/28 10:39:36;;;;;;;10.82;5.20;;;22.20;65.00;;;;;;5055521;28;20206;-81
2021/07/28 10:42:04;;;;;;;8.95;4.78;;;22.70;64.40;;;;;;5055691;28;20319;-80
2021/07/28 10:44:32;;;;;;;5.72;4.50;;;22.70;64.50;;;;;;5055697;28;20191;-81
2021/07/28 10:47:06;;;;;;;5.53;4.72;;;23.10;64.50;;;;;;5073744;28;20530;-80
2021/07/28 10:49:35;;;;;;;5.18;4.20;;;23.30;62.80;;;;;;5073641;28;20170;-81
2021/07/28 10:52:13;;;;;;;9.57;4.25;;;23.10;62.00;;;;;;5073813;28;20735;-81
2021/07/28 10:54:52;;;;;;;9.55;4.63;;;23.40;62.10;;;;;;5055501;28;20241;-82
2021/07/28 10:57:33;;;;;;;6.03;4.13;;;23.00;62.20;;;;;;5074787;28;20163;-81
2021/07/28 10:59:59;;;;;;;5.30;4.45;;;23.20;62.60;;;;;;5073546;28;20201;-80
2021/07/28 11:02:51;;;;;;;6.95;4.28;;;23.30;62.00;;;;;;5073157;28;20185;-81
2021/07/28 11:05:24;;;;;;;9.32;4.30;;;23.70;60.80;;;;;;5073333;28;20179;-80
2021/07/28 11:07:59;;;;;;;5.45;4.90;;;23.40;62.20;;;;;;5055767;28;20195;-81
2021/07/28 11:10:30;;;;;;;7.53;5.03;;;23.00;62.10;;;;;;5073602;28;20643;-81
2021/07/28 11:12:57;;;;;;;6.80;4.60;;;22.60;63.60;;;;;;5073523;28;20162;-80
2021/07/28 11:15:22;;;;;;;5.10;4.07;;;22.50;63.00;;;;;;5073687;28;20628;-81
2021/07/28 11:17:58;;;;;;;5.10;4.28;;;23.10;62.90;;;;;;5055314;28;20206;-81
2021/07/28 11:20:28;;;;;;;4.78;4.28;;;23.40;63.10;;;;;;5073376;28;20174;-81
2021/07/28 11:23:34;;;;;;;5.00;4.53;;;23.40;60.40;;;;;;5074159;28;20159;-80
2021/07/28 11:26:01;;;;;;;4.22;3.60;;;23.40;61.10;;;;;;5066943;28;20190;-81
2021/07/28 11:28:27;;;;;;;11.88;4.63;;;23.50;61.00;;;;;;5056188;28;20184;-80
2021/07/28 11:30:57;;;;;;;7.05;4.55;;;23.40;60.00;;;;;;5074083;28;20171;-80
2021/07/28 11:33:24;;;;;;;6.85;4.60;;;23.60;61.30;;;;;;5073761;28;20212;-80
2021/07/28 11:35:51;;;;;;;5.72;4.82;;;23.90;61.00;;;;;;5073257;28;20172;-80
2021/07/28 11:38:17;;;;;;;14.45;5.15;;;23.70;58.90;;;;;;5073596;28;20199;-81
2021/07/28 11:40:47;;;;;;;7.78;4.43;;;23.60;59.70;;;;;;5072761;28;20221;-80
2021/07/28 11:43:23;;;;;;;5.10;4.55;;;23.90;62.20;;;;;;5073020;28;20194;-80
2021/07/28 11:45:49;;;;;;;5.82;4.35;;;23.70;60.00;;;;;;5072928;28;20167;-80
2021/07/28 11:48:37;;;;;;;11.55;4.68;;;23.60;60.70;;;;;;5075731;28;20180;-81
2021/07/28 11:51:06;;;;;;;6.97;4.95;;;23.50;61.00;;;;;;5058636;28;20170;-80
2021/07/28 11:53:33;;;;;;;5.05;3.78;;;23.40;61.30;;;;;;5076387;28;20274;-80
2021/07/28 11:56:10;;;;;;;5.82;4.38;;;23.30;61.40;;;;;;5076458;28;20659;-80
2021/07/28 11:58:41;;;;;;;6.38;4.75;;;23.20;61.10;;;;;;5076261;28;20563;-82
2021/07/28 12:01:19;;;;;;;11.55;5.07;;;23.70;62.00;;;;;;5058628;28;20550;-80
2021/07/28 12:03:52;;;;;;;6.28;4.22;;;24.00;61.70;;;;;;5058366;28;20209;-81
2021/07/28 12:06:43;;;;;;;6.13;4.72;;;24.10;61.20;;;;;;5076233;28;20167;-82
2021/07/28 12:09:14;;;;;;;6.18;4.57;;;23.70;61.50;;;;;;5077075;28;20160;-81
2021/07/28 12:11:46;;;;;;;6.38;4.80;;;23.90;62.10;;;;;;5076421;28;20195;-81
2021/07/28 12:14:22;;;;;;;10.50;5.18;;;24.00;62.00;;;;;;5058586;28;20210;-81
2021/07/28 12:16:47;;;;;;;7.38;4.53;;;24.00;62.40;;;;;;5058642;28;20539;-80
2021/07/28 12:19:13;;;;;;;8.05;5.10;;;24.30;61.40;;;;;;5076609;28;20274;-80
2021/07/28 12:22:18;;;;;;;10.10;5.53;;;24.30;61.50;;;;;;5076372;28;20721;-81
2021/07/28 12:24:48;;;;;;;7.13;4.75;;;24.50;59.50;;;;;;5045063;28;20235;-80
2021/07/28 12:27:25;;;;;;;8.88;4.78;;;24.50;61.40;;;;;;5076078;28;20516;-81
2021/07/28 12:30:01;;;;;;;7.68;5.20;;;23.90;61.90;;;;;;5075989;28;20177;-80
2021/07/28 12:32:40;;;;;;;9.68;5.03;;;23.70;62.20;;;;;;5058507;28;20645;-80
2021/07/28 12:35:21;;;;;;;5.13;4.25;;;23.70;63.00;;;;;;5076268;28;20368;-80
2021/07/28 12:38:08;;;;;;;5.93;4.30;;;23.90;59.70;;;;;;5076906;28;20159;-81